sensor_id;sensor_type;location;lat;lon;timestamp;P1;durP1;ratioP1;P2;durP2;ratioP2
11187;SDS011;5650;52.700;7.306;2022-10-29T00:00:08;9.70;;;2.80;;
11187;SDS011;5650;52.700;7.306;2022-10-29T00:02:36;10.88;;;3.42;;
11187;SDS011;5650;52.700;7.306;2022-10-29T00:05:03;12.90;;;3.40;;
11187;SDS011;5650;52.700;7.306;2022-10-29T00:07:41;12.50;;;3.40;;
11187;SDS011;5650;52.700;7.306;2022-10-29T00:10:11;8.90;;;3.03;;
11187;SDS011;5650;52.700;7.306;2022-10-29T00:12:38;11.27;;;3.08;;
11187;SDS011;5650;52.700;7.306;2022-10-29T00:15:12;14.73;;;3.15;;
11187;SDS011;5650;52.700;7.306;2022-10-29T00:17:45;10.10;;;3.67;;
11187;SDS011;5650;52.700;7.306;2022-10-29T00:20:12;15.65;;;4.10;;
11187;SDS011;5650;52.700;7.306;2022-10-29T00:22:42;14.75;;;3.15;;
11187;SDS011;5650;52.700;7.306;2022-10-29T00:25:12;14.43;;;3.70;;
11187;SDS011;5650;52.700;7.306;2022-10-29T00:27:42;10.40;;;3.47;;
11187;SDS011;5650;52.700;7.306;2022-10-29T00:30:16;9.55;;;3.28;;
11187;SDS011;5650;52.700;7.306;2022-10-29T00:32:44;11.48;;;3.20;;
11187;SDS011;5650;52.700;7.306;2022-10-29T00:35:11;13.30;;;3.40;;
11187;SDS011;5650;52.700;7.306;2022-10-29T00:37:38;13.77;;;4.38;;
11187;SDS011;5650;52.700;7.306;2022-10-29T00:40:06;13.70;;;4.80;;
11187;SDS011;5650;52.700;7.306;2022-10-29T00:42:35;17.33;;;4.72;;
11187;SDS011;5650;52.700;7.306;2022-10-29T00:45:13;12.13;;;4.13;;
11187;SDS011;5650;52.700;7.306;2022-10-29T00:47:47;14.63;;;3.75;;
11187;SDS011;5650;52.700;7.306;2022-10-29T00:50:17;12.70;;;4.20;;
11187;SDS011;5650;52.700;7.306;2022-10-29T00:52:46;12.05;;;4.13;;
11187;SDS011;5650;52.700;7.306;2022-10-29T00:55:21;10.65;;;4.10;;
11187;SDS011;5650;52.700;7.306;2022-10-29T00:57:49;10.63;;;3.92;;
11187;SDS011;5650;52.700;7.306;2022-10-29T01:00:21;11.02;;;4.13;;
11187;SDS011;5650;52.700;7.306;2022-10-29T01:02:48;19.95;;;4.78;;
11187;SDS011;5650;52.700;7.306;2022-10-29T01:05:19;12.10;;;4.90;;
11187;SDS011;5650;52.700;7.306;2022-10-29T01:07:48;15.02;;;4.97;;
11187;SDS011;5650;52.700;7.306;2022-10-29T01:10:19;15.45;;;4.80;;
11187;SDS011;5650;52.700;7.306;2022-10-29T01:13:08;14.85;;;4.28;;
11187;SDS011;5650;52.700;7.306;2022-10-29T01:15:47;14.80;;;4.45;;
11187;SDS011;5650;52.700;7.306;2022-10-29T01:18:23;15.50;;;4.60;;
11187;SDS011;5650;52.700;7.306;2022-10-29T01:21:20;13.98;;;4.40;;
11187;SDS011;5650;52.700;7.306;2022-10-29T01:24:26;16.20;;;4.50;;
11187;SDS011;5650;52.700;7.306;2022-10-29T01:30:09;13.70;;;4.47;;
11187;SDS011;5650;52.700;7.306;2022-10-29T01:32:49;12.98;;;3.92;;
11187;SDS011;5650;52.700;7.306;2022-10-29T01:35:24;12.52;;;4.45;;
11187;SDS011;5650;52.700;7.306;2022-10-29T01:38:03;11.57;;;4.05;;
11187;SDS011;5650;52.700;7.306;2022-10-29T01:40:48;11.90;;;4.30;;
11187;SDS011;5650;52.700;7.306;2022-10-29T01:43:24;10.10;;;4.10;;
11187;SDS011;5650;52.700;7.306;2022-10-29T01:46:07;13.00;;;3.92;;
11187;SDS011;5650;52.700;7.306;2022-10-29T01:48:40;13.77;;;4.30;;
11187;SDS011;5650;52.700;7.306;2022-10-29T01:51:13;14.32;;;4.72;;
11187;SDS011;5650;52.700;7.306;2022-10-29T01:53:47;14.02;;;4.53;;
11187;SDS011;5650;52.700;7.306;2022-10-29T01:56:15;18.45;;;5.47;;
11187;SDS011;5650;52.700;7.306;2022-10-29T01:58:45;14.15;;;4.97;;
11187;SDS011;5650;52.700;7.306;2022-10-29T02:01:18;19.73;;;5.32;;
11187;SDS011;5650;52.700;7.306;2022-10-29T02:03:58;17.15;;;4.68;;
11187;SDS011;5650;52.700;7.306;2022-10-29T02:06:36;12.10;;;4.30;;
11187;SDS011;5650;52.700;7.306;2022-10-29T02:09:21;13.55;;;4.55;;
11187;SDS011;5650;52.700;7.306;2022-10-29T02:11:56;19.63;;;4.95;;
11187;SDS011;5650;52.700;7.306;2022-10-29T02:14:27;9.52;;;4.10;;
11187;SDS011;5650;52.700;7.306;2022-10-29T02:17:01;18.23;;;4.55;;
11187;SDS011;5650;52.700;7.306;2022-10-29T02:19:30;19.20;;;5.07;;
11187;SDS011;5650;52.700;7.306;2022-10-29T02:21:58;12.02;;;4.47;;
11187;SDS011;5650;52.700;7.306;2022-10-29T02:24:27;14.95;;;4.60;;
11187;SDS011;5650;52.700;7.306;2022-10-29T02:26:56;13.00;;;4.93;;
11187;SDS011;5650;52.700;7.306;2022-10-29T02:29:26;13.30;;;4.70;;
11187;SDS011;5650;52.700;7.306;2022-10-29T02:31:53;13.10;;;4.20;;
11187;SDS011;5650;52.700;7.306;2022-10-29T02:34:20;17.98;;;4.82;;
11187;SDS011;5650;52.700;7.306;2022-10-29T02:36:51;12.63;;;4.13;;
11187;SDS011;5650;52.700;7.306;2022-10-29T02:39:18;10.10;;;4.63;;
11187;SDS011;5650;52.700;7.306;2022-10-29T02:41:47;14.02;;;4.75;;
11187;SDS011;5650;52.700;7.306;2022-10-29T02:44:20;16.08;;;4.93;;
11187;SDS011;5650;52.700;7.306;2022-10-29T02:46:50;22.02;;;5.15;;
11187;SDS011;5650;52.700;7.306;2022-10-29T02:49:17;15.15;;;4.72;;
11187;SDS011;5650;52.700;7.306;2022-10-29T02:51:49;22.17;;;4.97;;
11187;SDS011;5650;52.700;7.306;2022-10-29T02:54:19;17.33;;;4.35;;
11187;SDS011;5650;52.700;7.306;2022-10-29T02:56:46;14.18;;;4.53;;
11187;SDS011;5650;52.700;7.306;2022-10-29T02:59:16;14.15;;;4.07;;
11187;SDS011;5650;52.700;7.306;2022-10-29T03:01:46;14.05;;;4.63;;
11187;SDS011;5650;52.700;7.306;2022-10-29T03:04:14;14.35;;;4.60;;
11187;SDS011;5650;52.700;7.306;2022-10-29T03:06:41;18.08;;;4.53;;
11187;SDS011;5650;52.700;7.306;2022-10-29T03:09:17;8.65;;;4.30;;
11187;SDS011;5650;52.700;7.306;2022-10-29T03:11:46;16.52;;;4.63;;
11187;SDS011;5650;52.700;7.306;2022-10-29T03:14:16;15.90;;;4.95;;
11187;SDS011;5650;52.700;7.306;2022-10-29T03:16:43;18.25;;;4.90;;
11187;SDS011;5650;52.700;7.306;2022-10-29T03:19:13;14.85;;;4.50;;
11187;SDS011;5650;52.700;7.306;2022-10-29T03:21:42;16.92;;;4.88;;
11187;SDS011;5650;52.700;7.306;2022-10-29T03:24:14;14.05;;;5.10;;
11187;SDS011;5650;52.700;7.306;2022-10-29T03:26:41;15.05;;;4.15;;
11187;SDS011;5650;52.700;7.306;2022-10-29T03:29:17;17.92;;;5.03;;
11187;SDS011;5650;52.700;7.306;2022-10-29T03:31:44;14.40;;;4.18;;
11187;SDS011;5650;52.700;7.306;2022-10-29T03:34:11;21.02;;;4.45;;
11187;SDS011;5650;52.700;7.306;2022-10-29T03:36:40;12.38;;;3.92;;
11187;SDS011;5650;52.700;7.306;2022-10-29T03:39:07;16.45;;;5.25;;
11187;SDS011;5650;52.700;7.306;2022-10-29T03:41:35;8.07;;;4.18;;
11187;SDS011;5650;52.700;7.306;2022-10-29T03:44:08;13.15;;;4.65;;
11187;SDS011;5650;52.700;7.306;2022-10-29T03:46:35;12.32;;;4.22;;
11187;SDS011;5650;52.700;7.306;2022-10-29T03:49:02;15.05;;;4.97;;
11187;SDS011;5650;52.700;7.306;2022-10-29T03:51:32;14.38;;;4.93;;
11187;SDS011;5650;52.700;7.306;2022-10-29T03:54:00;19.48;;;5.32;;
11187;SDS011;5650;52.700;7.306;2022-10-29T03:56:41;13.90;;;4.95;;
11187;SDS011;5650;52.700;7.306;2022-10-29T03:59:08;13.70;;;4.45;;
11187;SDS011;5650;52.700;7.306;2022-10-29T04:01:38;11.40;;;4.22;;
11187;SDS011;5650;52.700;7.306;2022-10-29T04:04:05;19.67;;;4.93;;
11187;SDS011;5650;52.700;7.306;2022-10-29T04:06:32;10.43;;;4.57;;
11187;SDS011;5650;52.700;7.306;2022-10-29T04:09:06;12.13;;;4.65;;
11187;SDS011;5650;52.700;7.306;2022-10-29T04:11:33;14.38;;;4.93;;
11187;SDS011;5650;52.700;7.306;2022-10-29T04:14:01;14.23;;;4.63;;
11187;SDS011;5650;52.700;7.306;2022-10-29T04:16:29;14.00;;;5.13;;
11187;SDS011;5650;52.700;7.306;2022-10-29T04:18:56;16.33;;;5.35;;
11187;SDS011;5650;52.700;7.306;2022-10-29T04:21:24;18.85;;;5.88;;
11187;SDS011;5650;52.700;7.306;2022-10-29T04:23:54;16.33;;;5.22;;
11187;SDS011;5650;52.700;7.306;2022-10-29T04:26:21;14.48;;;4.95;;
11187;SDS011;5650;52.700;7.306;2022-10-29T04:28:51;13.25;;;5.45;;
11187;SDS011;5650;52.700;7.306;2022-10-29T04:31:23;15.88;;;4.80;;
11187;SDS011;5650;52.700;7.306;2022-10-29T04:33:51;15.70;;;4.88;;
11187;SDS011;5650;52.700;7.306;2022-10-29T04:36:18;13.73;;;5.07;;
11187;SDS011;5650;52.700;7.306;2022-10-29T04:38:45;14.32;;;5.97;;
11187;SDS011;5650;52.700;7.306;2022-10-29T04:41:12;12.07;;;5.97;;
11187;SDS011;5650;52.700;7.306;2022-10-29T04:43:40;18.83;;;5.72;;
11187;SDS011;5650;52.700;7.306;2022-10-29T04:46:08;15.15;;;5.70;;
11187;SDS011;5650;52.700;7.306;2022-10-29T04:48:37;17.00;;;5.50;;
11187;SDS011;5650;52.700;7.306;2022-10-29T04:51:04;18.27;;;5.78;;
11187;SDS011;5650;52.700;7.306;2022-10-29T04:53:31;13.55;;;5.63;;
11187;SDS011;5650;52.700;7.306;2022-10-29T04:55:59;11.55;;;5.35;;
11187;SDS011;5650;52.700;7.306;2022-10-29T04:58:29;18.20;;;6.03;;
11187;SDS011;5650;52.700;7.306;2022-10-29T05:01:00;13.95;;;5.18;;
11187;SDS011;5650;52.700;7.306;2022-10-29T05:03:28;17.77;;;5.50;;
11187;SDS011;5650;52.700;7.306;2022-10-29T05:05:57;19.50;;;6.75;;
11187;SDS011;5650;52.700;7.306;2022-10-29T05:08:24;19.95;;;5.88;;
11187;SDS011;5650;52.700;7.306;2022-10-29T05:10:51;9.82;;;5.70;;
11187;SDS011;5650;52.700;7.306;2022-10-29T05:13:18;14.80;;;6.75;;
11187;SDS011;5650;52.700;7.306;2022-10-29T05:15:51;16.42;;;6.50;;
11187;SDS011;5650;52.700;7.306;2022-10-29T05:18:18;16.55;;;7.38;;
11187;SDS011;5650;52.700;7.306;2022-10-29T05:20:58;21.65;;;6.93;;
11187;SDS011;5650;52.700;7.306;2022-10-29T05:23:27;13.30;;;5.88;;
11187;SDS011;5650;52.700;7.306;2022-10-29T05:25:56;14.18;;;6.40;;
11187;SDS011;5650;52.700;7.306;2022-10-29T05:28:23;12.80;;;6.72;;
11187;SDS011;5650;52.700;7.306;2022-10-29T05:30:51;12.25;;;6.38;;
11187;SDS011;5650;52.700;7.306;2022-10-29T05:33:22;14.15;;;6.07;;
11187;SDS011;5650;52.700;7.306;2022-10-29T05:35:50;17.77;;;6.93;;
11187;SDS011;5650;52.700;7.306;2022-10-29T05:38:21;15.27;;;7.07;;
11187;SDS011;5650;52.700;7.306;2022-10-29T05:40:51;14.57;;;7.00;;
11187;SDS011;5650;52.700;7.306;2022-10-29T05:43:18;17.60;;;7.15;;
11187;SDS011;5650;52.700;7.306;2022-10-29T05:45:47;17.30;;;6.95;;
11187;SDS011;5650;52.700;7.306;2022-10-29T05:48:15;16.90;;;6.90;;
11187;SDS011;5650;52.700;7.306;2022-10-29T05:50:45;20.00;;;7.25;;
11187;SDS011;5650;52.700;7.306;2022-10-29T05:53:14;15.18;;;6.95;;
11187;SDS011;5650;52.700;7.306;2022-10-29T05:55:52;17.27;;;7.07;;
11187;SDS011;5650;52.700;7.306;2022-10-29T05:58:19;18.88;;;7.28;;
11187;SDS011;5650;52.700;7.306;2022-10-29T06:00:46;19.85;;;7.22;;
11187;SDS011;5650;52.700;7.306;2022-10-29T06:03:21;14.40;;;6.53;;
11187;SDS011;5650;52.700;7.306;2022-10-29T06:05:51;15.15;;;7.00;;
11187;SDS011;5650;52.700;7.306;2022-10-29T06:08:23;11.93;;;6.95;;
11187;SDS011;5650;52.700;7.306;2022-10-29T06:11:00;15.15;;;7.15;;
11187;SDS011;5650;52.700;7.306;2022-10-29T06:13:31;16.42;;;7.45;;
11187;SDS011;5650;52.700;7.306;2022-10-29T06:16:04;18.85;;;7.82;;
11187;SDS011;5650;52.700;7.306;2022-10-29T06:18:35;23.25;;;8.73;;
11187;SDS011;5650;52.700;7.306;2022-10-29T06:21:12;22.13;;;9.07;;
11187;SDS011;5650;52.700;7.306;2022-10-29T06:23:44;16.85;;;7.35;;
11187;SDS011;5650;52.700;7.306;2022-10-29T06:26:11;18.33;;;8.18;;
11187;SDS011;5650;52.700;7.306;2022-10-29T06:28:38;15.15;;;7.03;;
11187;SDS011;5650;52.700;7.306;2022-10-29T06:31:05;16.95;;;7.60;;
11187;SDS011;5650;52.700;7.306;2022-10-29T06:33:38;12.88;;;7.35;;
11187;SDS011;5650;52.700;7.306;2022-10-29T06:36:05;20.08;;;8.80;;
11187;SDS011;5650;52.700;7.306;2022-10-29T06:38:36;18.00;;;8.77;;
11187;SDS011;5650;52.700;7.306;2022-10-29T06:41:07;15.73;;;8.52;;
11187;SDS011;5650;52.700;7.306;2022-10-29T06:43:37;17.80;;;9.02;;
11187;SDS011;5650;52.700;7.306;2022-10-29T06:46:07;18.88;;;9.68;;
11187;SDS011;5650;52.700;7.306;2022-10-29T06:48:44;19.60;;;11.25;;
11187;SDS011;5650;52.700;7.306;2022-10-29T06:51:11;21.05;;;9.30;;
11187;SDS011;5650;52.700;7.306;2022-10-29T06:53:38;16.08;;;9.50;;
11187;SDS011;5650;52.700;7.306;2022-10-29T06:56:09;22.10;;;9.93;;
11187;SDS011;5650;52.700;7.306;2022-10-29T06:58:37;15.52;;;8.98;;
11187;SDS011;5650;52.700;7.306;2022-10-29T07:01:05;16.75;;;9.25;;
11187;SDS011;5650;52.700;7.306;2022-10-29T07:03:32;14.60;;;8.98;;
11187;SDS011;5650;52.700;7.306;2022-10-29T07:06:03;22.98;;;8.68;;
11187;SDS011;5650;52.700;7.306;2022-10-29T07:08:30;21.55;;;8.60;;
11187;SDS011;5650;52.700;7.306;2022-10-29T07:11:07;18.50;;;8.82;;
11187;SDS011;5650;52.700;7.306;2022-10-29T07:13:38;15.75;;;8.85;;
11187;SDS011;5650;52.700;7.306;2022-10-29T07:16:08;22.20;;;8.80;;
11187;SDS011;5650;52.700;7.306;2022-10-29T07:18:35;16.00;;;8.98;;
11187;SDS011;5650;52.700;7.306;2022-10-29T07:21:03;21.48;;;8.55;;
11187;SDS011;5650;52.700;7.306;2022-10-29T07:23:33;17.75;;;8.25;;
11187;SDS011;5650;52.700;7.306;2022-10-29T07:26:00;16.38;;;7.82;;
11187;SDS011;5650;52.700;7.306;2022-10-29T07:28:29;19.42;;;8.27;;
11187;SDS011;5650;52.700;7.306;2022-10-29T07:30:59;16.85;;;7.55;;
11187;SDS011;5650;52.700;7.306;2022-10-29T07:33:35;23.05;;;8.15;;
11187;SDS011;5650;52.700;7.306;2022-10-29T07:36:04;23.27;;;9.32;;
11187;SDS011;5650;52.700;7.306;2022-10-29T07:38:32;19.55;;;8.48;;
11187;SDS011;5650;52.700;7.306;2022-10-29T07:40:59;17.42;;;9.00;;
11187;SDS011;5650;52.700;7.306;2022-10-29T07:43:33;22.52;;;8.70;;
11187;SDS011;5650;52.700;7.306;2022-10-29T07:46:03;17.73;;;9.00;;
11187;SDS011;5650;52.700;7.306;2022-10-29T07:48:33;21.67;;;10.05;;
11187;SDS011;5650;52.700;7.306;2022-10-29T07:51:00;22.00;;;9.00;;
11187;SDS011;5650;52.700;7.306;2022-10-29T07:53:27;22.02;;;9.60;;
11187;SDS011;5650;52.700;7.306;2022-10-29T07:55:55;20.45;;;10.10;;
11187;SDS011;5650;52.700;7.306;2022-10-29T07:58:23;24.80;;;11.15;;
11187;SDS011;5650;52.700;7.306;2022-10-29T08:00:57;24.67;;;11.25;;
11187;SDS011;5650;52.700;7.306;2022-10-29T08:03:28;24.70;;;11.15;;
11187;SDS011;5650;52.700;7.306;2022-10-29T08:05:55;28.40;;;10.70;;
11187;SDS011;5650;52.700;7.306;2022-10-29T08:08:22;25.02;;;10.70;;
11187;SDS011;5650;52.700;7.306;2022-10-29T08:10:57;27.42;;;10.65;;
11187;SDS011;5650;52.700;7.306;2022-10-29T08:13:31;27.92;;;11.35;;
11187;SDS011;5650;52.700;7.306;2022-10-29T08:16:02;28.85;;;10.38;;
11187;SDS011;5650;52.700;7.306;2022-10-29T08:18:29;28.63;;;11.75;;
11187;SDS011;5650;52.700;7.306;2022-10-29T08:20:56;27.50;;;10.90;;
11187;SDS011;5650;52.700;7.306;2022-10-29T08:25:51;22.65;;;11.52;;
11187;SDS011;5650;52.700;7.306;2022-10-29T08:28:18;19.33;;;10.32;;
11187;SDS011;5650;52.700;7.306;2022-10-29T08:30:51;22.35;;;10.60;;
11187;SDS011;5650;52.700;7.306;2022-10-29T08:33:19;23.48;;;10.68;;
11187;SDS011;5650;52.700;7.306;2022-10-29T08:35:46;24.73;;;11.73;;
11187;SDS011;5650;52.700;7.306;2022-10-29T08:38:19;21.58;;;11.32;;
11187;SDS011;5650;52.700;7.306;2022-10-29T08:40:58;13.98;;;10.52;;
11187;SDS011;5650;52.700;7.306;2022-10-29T08:47:00;22.73;;;11.25;;
11187;SDS011;5650;52.700;7.306;2022-10-29T08:49:44;29.50;;;11.57;;
11187;SDS011;5650;52.700;7.306;2022-10-29T08:52:25;20.58;;;10.98;;
11187;SDS011;5650;52.700;7.306;2022-10-29T08:54:56;23.27;;;12.93;;
11187;SDS011;5650;52.700;7.306;2022-10-29T08:57:32;21.13;;;12.18;;
11187;SDS011;5650;52.700;7.306;2022-10-29T09:00:20;26.40;;;12.10;;
11187;SDS011;5650;52.700;7.306;2022-10-29T09:02:57;24.17;;;12.57;;
11187;SDS011;5650;52.700;7.306;2022-10-29T09:05:29;24.35;;;12.05;;
11187;SDS011;5650;52.700;7.306;2022-10-29T09:08:11;28.70;;;12.98;;
11187;SDS011;5650;52.700;7.306;2022-10-29T09:10:52;23.08;;;12.05;;
11187;SDS011;5650;52.700;7.306;2022-10-29T09:13:24;27.13;;;14.00;;
11187;SDS011;5650;52.700;7.306;2022-10-29T09:16:13;27.38;;;12.98;;
11187;SDS011;5650;52.700;7.306;2022-10-29T09:22:26;23.42;;;13.40;;
11187;SDS011;5650;52.700;7.306;2022-10-29T09:25:02;25.77;;;13.73;;
11187;SDS011;5650;52.700;7.306;2022-10-29T09:27:43;27.98;;;13.65;;
11187;SDS011;5650;52.700;7.306;2022-10-29T09:30:41;23.98;;;13.15;;
11187;SDS011;5650;52.700;7.306;2022-10-29T09:33:24;23.88;;;13.70;;
11187;SDS011;5650;52.700;7.306;2022-10-29T09:35:52;25.55;;;13.88;;
11187;SDS011;5650;52.700;7.306;2022-10-29T09:38:28;31.73;;;14.02;;
11187;SDS011;5650;52.700;7.306;2022-10-29T09:40:59;30.33;;;14.77;;
11187;SDS011;5650;52.700;7.306;2022-10-29T09:43:33;25.58;;;13.75;;
11187;SDS011;5650;52.700;7.306;2022-10-29T09:46:06;31.48;;;14.20;;
11187;SDS011;5650;52.700;7.306;2022-10-29T09:48:39;35.80;;;13.68;;
11187;SDS011;5650;52.700;7.306;2022-10-29T09:51:14;49.67;;;16.27;;
11187;SDS011;5650;52.700;7.306;2022-10-29T09:54:02;24.15;;;14.15;;
11187;SDS011;5650;52.700;7.306;2022-10-29T09:56:30;30.88;;;15.15;;
11187;SDS011;5650;52.700;7.306;2022-10-29T09:59:16;35.90;;;17.85;;
11187;SDS011;5650;52.700;7.306;2022-10-29T10:01:50;31.17;;;16.33;;
11187;SDS011;5650;52.700;7.306;2022-10-29T10:04:20;32.28;;;16.77;;
11187;SDS011;5650;52.700;7.306;2022-10-29T10:07:07;35.38;;;17.27;;
11187;SDS011;5650;52.700;7.306;2022-10-29T10:10:02;28.50;;;17.67;;
11187;SDS011;5650;52.700;7.306;2022-10-29T10:12:43;33.42;;;18.42;;
11187;SDS011;5650;52.700;7.306;2022-10-29T10:15:24;31.95;;;18.08;;
11187;SDS011;5650;52.700;7.306;2022-10-29T10:17:58;41.75;;;17.70;;
11187;SDS011;5650;52.700;7.306;2022-10-29T10:20:39;31.50;;;18.20;;
11187;SDS011;5650;52.700;7.306;2022-10-29T10:23:24;29.25;;;17.63;;
11187;SDS011;5650;52.700;7.306;2022-10-29T10:25:54;36.95;;;17.67;;
11187;SDS011;5650;52.700;7.306;2022-10-29T10:28:23;32.20;;;19.20;;
11187;SDS011;5650;52.700;7.306;2022-10-29T10:31:08;33.88;;;17.23;;
11187;SDS011;5650;52.700;7.306;2022-10-29T10:33:43;38.17;;;17.33;;
11187;SDS011;5650;52.700;7.306;2022-10-29T10:36:17;29.42;;;16.67;;
11187;SDS011;5650;52.700;7.306;2022-10-29T10:38:50;35.10;;;16.42;;
11187;SDS011;5650;52.700;7.306;2022-10-29T10:41:30;37.42;;;16.58;;
11187;SDS011;5650;52.700;7.306;2022-10-29T10:44:17;30.23;;;15.30;;
11187;SDS011;5650;52.700;7.306;2022-10-29T10:46:50;29.35;;;14.35;;
11187;SDS011;5650;52.700;7.306;2022-10-29T10:49:30;31.17;;;14.70;;
11187;SDS011;5650;52.700;7.306;2022-10-29T10:52:03;24.67;;;14.15;;
11187;SDS011;5650;52.700;7.306;2022-10-29T10:54:33;25.92;;;14.05;;
11187;SDS011;5650;52.700;7.306;2022-10-29T10:57:17;34.15;;;15.10;;
11187;SDS011;5650;52.700;7.306;2022-10-29T10:59:53;22.55;;;13.77;;
11187;SDS011;5650;52.700;7.306;2022-10-29T11:02:38;25.13;;;14.30;;
11187;SDS011;5650;52.700;7.306;2022-10-29T11:05:17;28.60;;;14.07;;
11187;SDS011;5650;52.700;7.306;2022-10-29T11:07:48;29.08;;;13.88;;
11187;SDS011;5650;52.700;7.306;2022-10-29T11:10:41;27.92;;;13.40;;
11187;SDS011;5650;52.700;7.306;2022-10-29T11:13:16;24.27;;;12.98;;
11187;SDS011;5650;52.700;7.306;2022-10-29T11:15:47;23.92;;;13.35;;
11187;SDS011;5650;52.700;7.306;2022-10-29T11:18:19;30.73;;;13.63;;
11187;SDS011;5650;52.700;7.306;2022-10-29T11:21:02;29.02;;;13.55;;
11187;SDS011;5650;52.700;7.306;2022-10-29T11:23:42;26.33;;;13.05;;
11187;SDS011;5650;52.700;7.306;2022-10-29T11:26:16;32.60;;;14.02;;
11187;SDS011;5650;52.700;7.306;2022-10-29T11:28:50;30.60;;;14.60;;
11187;SDS011;5650;52.700;7.306;2022-10-29T11:31:28;33.15;;;14.30;;
11187;SDS011;5650;52.700;7.306;2022-10-29T11:34:11;28.38;;;13.68;;
11187;SDS011;5650;52.700;7.306;2022-10-29T11:36:45;28.33;;;13.48;;
11187;SDS011;5650;52.700;7.306;2022-10-29T11:39:18;31.58;;;13.73;;
11187;SDS011;5650;52.700;7.306;2022-10-29T11:41:54;27.92;;;14.23;;
11187;SDS011;5650;52.700;7.306;2022-10-29T11:44:28;21.65;;;12.80;;
11187;SDS011;5650;52.700;7.306;2022-10-29T11:47:06;29.70;;;13.30;;
11187;SDS011;5650;52.700;7.306;2022-10-29T11:49:46;30.65;;;13.60;;
11187;SDS011;5650;52.700;7.306;2022-10-29T11:52:25;31.85;;;13.43;;
11187;SDS011;5650;52.700;7.306;2022-10-29T11:54:58;37.78;;;13.38;;
11187;SDS011;5650;52.700;7.306;2022-10-29T11:57:33;29.98;;;14.18;;
11187;SDS011;5650;52.700;7.306;2022-10-29T12:00:10;20.17;;;11.80;;
11187;SDS011;5650;52.700;7.306;2022-10-29T12:02:53;29.25;;;13.77;;
11187;SDS011;5650;52.700;7.306;2022-10-29T12:05:37;27.33;;;12.07;;
11187;SDS011;5650;52.700;7.306;2022-10-29T12:08:16;28.58;;;12.82;;
11187;SDS011;5650;52.700;7.306;2022-10-29T12:10:55;27.40;;;13.50;;
11187;SDS011;5650;52.700;7.306;2022-10-29T12:13:41;31.08;;;13.18;;
11187;SDS011;5650;52.700;7.306;2022-10-29T12:16:21;29.65;;;16.65;;
11187;SDS011;5650;52.700;7.306;2022-10-29T12:19:06;28.73;;;14.65;;
11187;SDS011;5650;52.700;7.306;2022-10-29T12:21:41;24.63;;;13.43;;
11187;SDS011;5650;52.700;7.306;2022-10-29T12:24:24;25.55;;;12.82;;
11187;SDS011;5650;52.700;7.306;2022-10-29T12:27:08;29.58;;;13.13;;
11187;SDS011;5650;52.700;7.306;2022-10-29T12:29:44;25.63;;;12.80;;
11187;SDS011;5650;52.700;7.306;2022-10-29T12:32:18;23.27;;;12.68;;
11187;SDS011;5650;52.700;7.306;2022-10-29T12:34:53;24.13;;;13.18;;
11187;SDS011;5650;52.700;7.306;2022-10-29T12:37:36;36.50;;;15.45;;
11187;SDS011;5650;52.700;7.306;2022-10-29T12:40:32;27.80;;;15.40;;
11187;SDS011;5650;52.700;7.306;2022-10-29T12:43:10;35.85;;;16.42;;
11187;SDS011;5650;52.700;7.306;2022-10-29T12:45:41;33.95;;;15.82;;
11187;SDS011;5650;52.700;7.306;2022-10-29T12:48:16;34.22;;;14.38;;
11187;SDS011;5650;52.700;7.306;2022-10-29T12:50:57;29.67;;;12.50;;
11187;SDS011;5650;52.700;7.306;2022-10-29T12:53:38;30.75;;;12.90;;
11187;SDS011;5650;52.700;7.306;2022-10-29T12:56:10;31.20;;;13.18;;
11187;SDS011;5650;52.700;7.306;2022-10-29T12:58:42;34.25;;;14.07;;
11187;SDS011;5650;52.700;7.306;2022-10-29T13:04:29;23.92;;;12.55;;
11187;SDS011;5650;52.700;7.306;2022-10-29T13:07:08;25.60;;;12.40;;
11187;SDS011;5650;52.700;7.306;2022-10-29T13:09:48;25.88;;;12.00;;
11187;SDS011;5650;52.700;7.306;2022-10-29T13:12:59;25.33;;;11.80;;
11187;SDS011;5650;52.700;7.306;2022-10-29T13:15:29;24.13;;;11.05;;
11187;SDS011;5650;52.700;7.306;2022-10-29T13:18:07;25.02;;;10.40;;
11187;SDS011;5650;52.700;7.306;2022-10-29T13:20:49;24.05;;;11.13;;
11187;SDS011;5650;52.700;7.306;2022-10-29T13:23:32;27.50;;;9.40;;
11187;SDS011;5650;52.700;7.306;2022-10-29T13:26:01;24.63;;;10.73;;
11187;SDS011;5650;52.700;7.306;2022-10-29T13:28:51;18.70;;;9.38;;
11187;SDS011;5650;52.700;7.306;2022-10-29T13:37:46;26.75;;;8.93;;
11187;SDS011;5650;52.700;7.306;2022-10-29T13:43:27;16.73;;;8.77;;
11187;SDS011;5650;52.700;7.306;2022-10-29T13:46:01;22.15;;;9.10;;
11187;SDS011;5650;52.700;7.306;2022-10-29T13:48:45;21.35;;;9.07;;
11187;SDS011;5650;52.700;7.306;2022-10-29T13:51:21;15.10;;;8.25;;
11187;SDS011;5650;52.700;7.306;2022-10-29T13:54:08;19.58;;;8.98;;
11187;SDS011;5650;52.700;7.306;2022-10-29T13:56:45;18.67;;;8.13;;
11187;SDS011;5650;52.700;7.306;2022-10-29T13:59:18;21.48;;;8.85;;
11187;SDS011;5650;52.700;7.306;2022-10-29T14:01:54;18.15;;;8.38;;
11187;SDS011;5650;52.700;7.306;2022-10-29T14:04:45;18.95;;;8.20;;
11187;SDS011;5650;52.700;7.306;2022-10-29T14:07:15;16.65;;;8.85;;
11187;SDS011;5650;52.700;7.306;2022-10-29T14:09:48;19.80;;;8.57;;
11187;SDS011;5650;52.700;7.306;2022-10-29T14:12:19;18.27;;;7.82;;
11187;SDS011;5650;52.700;7.306;2022-10-29T14:14:52;22.75;;;7.75;;
11187;SDS011;5650;52.700;7.306;2022-10-29T14:17:30;23.58;;;7.60;;
11187;SDS011;5650;52.700;7.306;2022-10-29T14:20:17;18.38;;;7.35;;
11187;SDS011;5650;52.700;7.306;2022-10-29T14:22:48;21.48;;;7.70;;
11187;SDS011;5650;52.700;7.306;2022-10-29T14:25:27;16.02;;;6.70;;
11187;SDS011;5650;52.700;7.306;2022-10-29T14:28:16;17.35;;;6.47;;
11187;SDS011;5650;52.700;7.306;2022-10-29T14:31:03;19.10;;;6.97;;
11187;SDS011;5650;52.700;7.306;2022-10-29T14:33:41;19.55;;;7.45;;
11187;SDS011;5650;52.700;7.306;2022-10-29T14:36:13;18.55;;;6.97;;
11187;SDS011;5650;52.700;7.306;2022-10-29T14:38:46;16.70;;;7.13;;
11187;SDS011;5650;52.700;7.306;2022-10-29T14:41:17;16.15;;;7.10;;
11187;SDS011;5650;52.700;7.306;2022-10-29T14:43:59;14.70;;;6.55;;
11187;SDS011;5650;52.700;7.306;2022-10-29T14:46:30;16.80;;;6.22;;
11187;SDS011;5650;52.700;7.306;2022-10-29T14:49:02;19.52;;;6.53;;
11187;SDS011;5650;52.700;7.306;2022-10-29T14:51:47;13.65;;;7.50;;
11187;SDS011;5650;52.700;7.306;2022-10-29T14:54:17;21.27;;;7.75;;
11187;SDS011;5650;52.700;7.306;2022-10-29T14:56:53;18.20;;;7.53;;
11187;SDS011;5650;52.700;7.306;2022-10-29T14:59:23;17.25;;;6.50;;
11187;SDS011;5650;52.700;7.306;2022-10-29T15:01:55;17.38;;;7.38;;
11187;SDS011;5650;52.700;7.306;2022-10-29T15:04:25;17.63;;;6.80;;
11187;SDS011;5650;52.700;7.306;2022-10-29T15:06:55;15.50;;;7.43;;
11187;SDS011;5650;52.700;7.306;2022-10-29T15:09:37;17.52;;;7.43;;
11187;SDS011;5650;52.700;7.306;2022-10-29T15:12:18;18.23;;;7.45;;
11187;SDS011;5650;52.700;7.306;2022-10-29T15:14:46;24.38;;;7.80;;
11187;SDS011;5650;52.700;7.306;2022-10-29T15:17:16;21.20;;;7.57;;
11187;SDS011;5650;52.700;7.306;2022-10-29T15:19:47;25.55;;;8.27;;
11187;SDS011;5650;52.700;7.306;2022-10-29T15:22:20;22.45;;;8.20;;
11187;SDS011;5650;52.700;7.306;2022-10-29T15:24:51;18.30;;;7.63;;
11187;SDS011;5650;52.700;7.306;2022-10-29T15:27:22;26.83;;;8.52;;
11187;SDS011;5650;52.700;7.306;2022-10-29T15:29:50;16.80;;;8.00;;
11187;SDS011;5650;52.700;7.306;2022-10-29T15:32:20;22.92;;;7.90;;
11187;SDS011;5650;52.700;7.306;2022-10-29T15:34:58;19.95;;;7.90;;
11187;SDS011;5650;52.700;7.306;2022-10-29T15:37:49;19.83;;;8.20;;
11187;SDS011;5650;52.700;7.306;2022-10-29T15:40:20;22.25;;;7.78;;
11187;SDS011;5650;52.700;7.306;2022-10-29T15:45:54;18.27;;;7.93;;
11187;SDS011;5650;52.700;7.306;2022-10-29T15:48:34;24.08;;;8.60;;